Chang Sheng — V3PK — position and weather

sailwx.info

Track history (hours):
 
Tides and Currents Weather Stations Pressure Air Temp Water Temp Dewpoint Dewpoint Depression Visibility Wind Speed Wind Dir Waves Ship Positions

Chang Sheng

Last reported at 2015-Jul-29 19:21 UTC. Time now 2015-Jul-29 19:58 UTC.
Position N 35°41' E 139°59'.

Length 86 m; draft 5.9 m.

Type: Cargo ship. MMSI: 312161000.

Date/timePositionNaut miles runAvg speedWind from/ knotsBaromVisibWave heightAir tempDewpointWater temp
2015-Jul-29 19:21N 35°41' E 139°59'0 0.0
2015-Jul-29 18:27N 35°41' E 139°59'0 0.0
2015-Jul-29 17:21N 35°41' E 139°59'0 0.0
2015-Jul-29 15:09N 35°41' E 139°59'0 0.0
2015-Jul-29 14:30N 35°41' E 139°59'0 0.0
2015-Jul-29 13:27N 35°41' E 139°59'0 0.0
2015-Jul-29 12:27N 35°41' E 139°59'0 0.0
2015-Jul-29 11:27N 35°41' E 139°59'0 0.0
2015-Jul-29 10:33N 35°41' E 139°59'0 0.0
2015-Jul-29 09:21N 35°41' E 139°59'0 0.0
2015-Jul-29 07:33N 35°41' E 139°59'0 0.0
2015-Jul-29 06:33N 35°41' E 139°59'0 0.0
2015-Jul-29 05:15N 35°41' E 139°59'0 0.0
2015-Jul-29 04:33N 35°41' E 139°59'0 0.0
2015-Jul-29 03:15N 35°41' E 139°59'0 0.0
2015-Jul-29 02:33N 35°41' E 139°59'0 0.0
2015-Jul-29 01:30N 35°41' E 139°59'0 0.0
2015-Jul-29 00:30N 35°41' E 139°59'0 0.0
2015-Jul-28 23:21N 35°41' E 139°59'0 0.0
2015-Jul-28 21:21N 35°41' E 139°59'0 0.0
2015-Jul-28 20:15N 35°41' E 139°59'0 0.0
2015-Jul-28 19:27N 35°41' E 139°59'0 0.0
2015-Jul-28 18:33N 35°41' E 139°59'0 0.0
2015-Jul-28 17:33N 35°41' E 139°59'0 0.0
2015-Jul-28 15:33N 35°41' E 139°59'0 0.0
2015-Jul-28 14:33N 35°41' E 139°59'0 0.0
2015-Jul-28 13:33N 35°41' E 139°59'0 0.0
2015-Jul-28 12:21N 35°41' E 139°59'0 0.0
2015-Jul-28 11:33N 35°41' E 139°59'0 0.0
2015-Jul-28 10:21N 35°41' E 139°59'0 0.0
2015-Jul-28 09:33N 35°41' E 139°59'0 0.0
2015-Jul-28 08:09N 35°41' E 139°59'0 0.0
2015-Jul-28 07:33N 35°41' E 139°59'0 0.0
2015-Jul-28 06:27N 35°41' E 139°59'0 0.0
2015-Jul-28 05:33N 35°41' E 139°59'0 0.0
2015-Jul-28 04:33N 35°41' E 139°59'0 0.0
2015-Jul-28 03:33N 35°41' E 139°59'0 0.0
2015-Jul-28 02:33N 35°41' E 139°59'0 0.0
2015-Jul-28 01:33N 35°41' E 139°59'0 0.0
2015-Jul-28 00:33N 35°41' E 139°59'0 0.0
2015-Jul-27 23:21N 35°41' E 139°59'0 0.0
2015-Jul-27 22:21N 35°41' E 139°59'0 0.0
2015-Jul-27 20:15N 35°41' E 139°59'0 0.0
2015-Jul-27 19:15N 35°41' E 139°59'0 0.0
2015-Jul-27 18:15N 35°41' E 139°59'0 0.0
2015-Jul-27 17:33N 35°41' E 139°59'0 0.0
2015-Jul-27 16:33N 35°41' E 139°59'0 0.0
2015-Jul-27 15:33N 35°41' E 139°59'0 0.0
2015-Jul-27 14:27N 35°41' E 139°59'0 0.0
2015-Jul-27 13:27N 35°41' E 139°59'0 0.0
2015-Jul-27 12:33N 35°41' E 139°59'0 0.0
2015-Jul-27 11:33N 35°41' E 139°59'0 0.0
2015-Jul-27 10:33N 35°41' E 139°59'0 0.0
2015-Jul-27 09:27N 35°41' E 139°59'0 0.0
2015-Jul-27 08:09N 35°41' E 139°59'0 0.0
2015-Jul-27 07:33N 35°41' E 139°59'1 1.2
2015-Jul-27 06:33N 35°39' E 139°59'3 3.1
2015-Jul-27 05:33N 35°36' E 139°58'0 0.1
2015-Jul-27 04:33N 35°36' E 139°58'7 7.0
2015-Jul-27 03:33N 35°31' E 139°54'9 9.3
2015-Jul-27 02:33N 35°24' E 139°46'8 8.3
2015-Jul-27 01:33N 35°15' E 139°47'9 8.5
2015-Jul-27 00:33N 35°07' E 139°44'9 9.0
2015-Jul-26 23:33N 35°01' E 139°36'235 7.8
2015-Jul-25 17:33N 34°03' E 134°60'9 8.6
2015-Jul-25 16:33N 34°12' E 134°59'9 8.7
2015-Jul-25 15:33N 34°21' E 134°60'9 8.6
2015-Jul-25 14:33N 34°29' E 135°02'8 8.2
2015-Jul-25 13:33N 34°37' E 135°01'  
Track history (hours):
 
Tides and Currents Weather Stations Pressure Air Temp Water Temp Dewpoint Dewpoint Depression Visibility Wind Speed Wind Dir Waves Ship Positions

Chang Sheng

Last reported at 2015-Jul-29 19:21 UTC. Time now 2015-Jul-29 19:58 UTC.
Position N 35°41' E 139°59'.

Length 86 m; draft 5.9 m.

Type: Cargo ship. MMSI: 312161000.

Date/timePositionNaut miles runAvg speedWind from/ knotsBaromVisibWave heightAir tempDewpointWater temp
2015-Jul-29 19:21N 35°41' E 139°59'0 0.0
2015-Jul-29 18:27N 35°41' E 139°59'0 0.0
2015-Jul-29 17:21N 35°41' E 139°59'0 0.0
2015-Jul-29 15:09N 35°41' E 139°59'0 0.0
2015-Jul-29 14:30N 35°41' E 139°59'0 0.0
2015-Jul-29 13:27N 35°41' E 139°59'0 0.0
2015-Jul-29 12:27N 35°41' E 139°59'0 0.0
2015-Jul-29 11:27N 35°41' E 139°59'0 0.0
2015-Jul-29 10:33N 35°41' E 139°59'0 0.0
2015-Jul-29 09:21N 35°41' E 139°59'0 0.0
2015-Jul-29 07:33N 35°41' E 139°59'0 0.0
2015-Jul-29 06:33N 35°41' E 139°59'0 0.0
2015-Jul-29 05:15N 35°41' E 139°59'0 0.0
2015-Jul-29 04:33N 35°41' E 139°59'0 0.0
2015-Jul-29 03:15N 35°41' E 139°59'0 0.0
2015-Jul-29 02:33N 35°41' E 139°59'0 0.0
2015-Jul-29 01:30N 35°41' E 139°59'0 0.0
2015-Jul-29 00:30N 35°41' E 139°59'0 0.0
2015-Jul-28 23:21N 35°41' E 139°59'0 0.0
2015-Jul-28 21:21N 35°41' E 139°59'0 0.0
2015-Jul-28 20:15N 35°41' E 139°59'0 0.0
2015-Jul-28 19:27N 35°41' E 139°59'0 0.0
2015-Jul-28 18:33N 35°41' E 139°59'0 0.0
2015-Jul-28 17:33N 35°41' E 139°59'0 0.0
2015-Jul-28 15:33N 35°41' E 139°59'0 0.0
2015-Jul-28 14:33N 35°41' E 139°59'0 0.0
2015-Jul-28 13:33N 35°41' E 139°59'0 0.0
2015-Jul-28 12:21N 35°41' E 139°59'0 0.0
2015-Jul-28 11:33N 35°41' E 139°59'0 0.0
2015-Jul-28 10:21N 35°41' E 139°59'0 0.0
2015-Jul-28 09:33N 35°41' E 139°59'0 0.0
2015-Jul-28 08:09N 35°41' E 139°59'0 0.0
2015-Jul-28 07:33N 35°41' E 139°59'0 0.0
2015-Jul-28 06:27N 35°41' E 139°59'0 0.0
2015-Jul-28 05:33N 35°41' E 139°59'0 0.0
2015-Jul-28 04:33N 35°41' E 139°59'0 0.0
2015-Jul-28 03:33N 35°41' E 139°59'0 0.0
2015-Jul-28 02:33N 35°41' E 139°59'0 0.0
2015-Jul-28 01:33N 35°41' E 139°59'0 0.0
2015-Jul-28 00:33N 35°41' E 139°59'0 0.0
2015-Jul-27 23:21N 35°41' E 139°59'0 0.0
2015-Jul-27 22:21N 35°41' E 139°59'0 0.0
2015-Jul-27 20:15N 35°41' E 139°59'0 0.0
2015-Jul-27 19:15N 35°41' E 139°59'0 0.0
2015-Jul-27 18:15N 35°41' E 139°59'0 0.0
2015-Jul-27 17:33N 35°41' E 139°59'0 0.0
2015-Jul-27 16:33N 35°41' E 139°59'0 0.0
2015-Jul-27 15:33N 35°41' E 139°59'0 0.0
2015-Jul-27 14:27N 35°41' E 139°59'0 0.0
2015-Jul-27 13:27N 35°41' E 139°59'0 0.0
2015-Jul-27 12:33N 35°41' E 139°59'0 0.0
2015-Jul-27 11:33N 35°41' E 139°59'0 0.0
2015-Jul-27 10:33N 35°41' E 139°59'0 0.0
2015-Jul-27 09:27N 35°41' E 139°59'0 0.0
2015-Jul-27 08:09N 35°41' E 139°59'0 0.0
2015-Jul-27 07:33N 35°41' E 139°59'1 1.2
2015-Jul-27 06:33N 35°39' E 139°59'3 3.1
2015-Jul-27 05:33N 35°36' E 139°58'0 0.1
2015-Jul-27 04:33N 35°36' E 139°58'7 7.0
2015-Jul-27 03:33N 35°31' E 139°54'9 9.3
2015-Jul-27 02:33N 35°24' E 139°46'8 8.3
2015-Jul-27 01:33N 35°15' E 139°47'9 8.5
2015-Jul-27 00:33N 35°07' E 139°44'9 9.0
2015-Jul-26 23:33N 35°01' E 139°36'235 7.8
2015-Jul-25 17:33N 34°03' E 134°60'9 8.6
2015-Jul-25 16:33N 34°12' E 134°59'9 8.7
2015-Jul-25 15:33N 34°21' E 134°60'9 8.6
2015-Jul-25 14:33N 34°29' E 135°02'8 8.2
2015-Jul-25 13:33N 34°37' E 135°01'  

Dump ship's entire track history